Time;durP1;ratioP1;P1;durP2;ratioP2;P2;SDS_P1;SDS_P2;PMS_P1;PMS_P2;Temp;Humidity;BMP_temperature;BMP_pressure;BME280_temperature;BME280_humidity;BME280_pressure;Samples;Min_cycle;Max_cycle;Signal;HPM_P1;HPM_P2
2022/01/09 00:00:23;;;;;;;1.50;1.40;;;;;;;;;;5116934;28;20187;-65
2022/01/09 00:02:50;;;;;;;1.33;1.23;;;;;;;;;;5116792;28;20213;-65
2022/01/09 00:05:18;;;;;;;2.55;1.45;;;;;;;;;;5117276;28;20536;-64
2022/01/09 00:07:45;;;;;;;1.40;1.30;;;;;;;;;;5116452;28;20287;-65
2022/01/09 00:10:12;;;;;;;1.63;1.52;;;;;;;;;;5116428;28;20675;-64
2022/01/09 00:12:41;;;;;;;1.33;1.23;;;;;;;;;;5116926;28;20189;-64
2022/01/09 00:15:09;;;;;;;1.20;1.20;;;;;;;;;;5116132;28;20191;-65
2022/01/09 00:17:36;;;;;;;1.40;1.30;;;;;;;;;;5116485;28;20309;-65
2022/01/09 00:20:05;;;;;;;1.10;1.10;;;;;;;;;;5116565;28;20230;-64
2022/01/09 00:22:37;;;;;;;1.25;1.15;;;;;;;;;;5117313;28;20249;-65
2022/01/09 00:25:04;;;;;;;1.20;1.10;;;;;;;;;;5116718;28;20616;-64
2022/01/09 00:27:32;;;;;;;1.88;1.35;;;;;;;;;;5116679;28;20328;-64
2022/01/09 00:30:00;;;;;;;1.42;1.33;;;;;;;;;;5116067;28;20666;-65
2022/01/09 00:32:27;;;;;;;1.55;1.45;;;;;;;;;;5116042;28;20282;-65
2022/01/09 00:34:55;;;;;;;1.30;1.20;;;;;;;;;;5116226;28;20233;-65
2022/01/09 00:37:22;;;;;;;1.10;1.10;;;;;;;;;;5115859;28;20672;-66
2022/01/09 00:39:49;;;;;;;2.88;1.50;;;;;;;;;;5116693;28;20281;-64
2022/01/09 00:42:16;;;;;;;1.40;1.30;;;;;;;;;;5116368;28;20194;-65
2022/01/09 00:44:44;;;;;;;2.55;1.27;;;;;;;;;;5116061;28;20279;-64
2022/01/09 00:47:12;;;;;;;2.42;2.10;;;;;;;;;;5116062;28;20191;-66
2022/01/09 00:49:40;;;;;;;1.95;1.85;;;;;;;;;;5116347;28;20274;-65
2022/01/09 00:52:07;;;;;;;2.45;1.20;;;;;;;;;;5115914;28;20192;-65
2022/01/09 00:54:34;;;;;;;1.42;1.33;;;;;;;;;;5115893;28;20280;-65
2022/01/09 00:57:01;;;;;;;1.40;1.30;;;;;;;;;;5115448;28;20218;-65
2022/01/09 00:59:29;;;;;;;2.00;1.50;;;;;;;;;;5116315;28;20595;-65
2022/01/09 01:01:56;;;;;;;1.60;1.50;;;;;;;;;;5115470;28;20267;-65
2022/01/09 01:04:25;;;;;;;1.65;1.55;;;;;;;;;;5115715;28;20222;-65
2022/01/09 01:06:52;;;;;;;1.60;1.50;;;;;;;;;;5115316;28;20282;-65
2022/01/09 01:09:20;;;;;;;2.60;2.05;;;;;;;;;;5115577;28;20282;-64
2022/01/09 01:11:48;;;;;;;3.03;2.08;;;;;;;;;;5115241;28;20196;-65
2022/01/09 01:14:15;;;;;;;1.60;1.50;;;;;;;;;;5115736;28;20223;-65
2022/01/09 01:16:42;;;;;;;1.85;1.60;;;;;;;;;;5115179;28;20214;-65
2022/01/09 01:19:10;;;;;;;1.38;1.27;;;;;;;;;;5116103;28;20224;-64
2022/01/09 01:21:39;;;;;;;1.42;1.33;;;;;;;;;;5115387;28;20190;-65
2022/01/09 01:24:07;;;;;;;1.10;1.10;;;;;;;;;;5116099;28;20226;-65
2022/01/09 01:26:34;;;;;;;1.40;1.30;;;;;;;;;;5114602;28;20201;-64
2022/01/09 01:29:01;;;;;;;1.20;1.10;;;;;;;;;;5115283;28;20278;-64
2022/01/09 01:31:29;;;;;;;3.00;1.40;;;;;;;;;;5114947;28;20193;-65
2022/01/09 01:33:56;;;;;;;1.25;1.15;;;;;;;;;;5114849;28;20284;-65
2022/01/09 01:36:23;;;;;;;1.60;1.50;;;;;;;;;;5115082;28;20276;-64
2022/01/09 01:38:52;;;;;;;1.15;1.10;;;;;;;;;;5115074;28;20230;-64
2022/01/09 01:41:19;;;;;;;1.50;1.40;;;;;;;;;;5114625;28;20285;-65
2022/01/09 01:43:46;;;;;;;1.30;1.20;;;;;;;;;;5114999;28;20283;-65
2022/01/09 01:46:13;;;;;;;1.40;1.30;;;;;;;;;;5114660;28;20279;-64
2022/01/09 01:48:41;;;;;;;1.30;1.20;;;;;;;;;;5115738;28;20270;-65
2022/01/09 01:51:08;;;;;;;1.60;1.50;;;;;;;;;;5114970;28;20277;-64
2022/01/09 01:53:35;;;;;;;2.67;1.17;;;;;;;;;;5114502;28;20289;-64
2022/01/09 01:56:04;;;;;;;1.92;1.48;;;;;;;;;;5115004;28;20652;-64
2022/01/09 01:58:34;;;;;;;1.55;1.45;;;;;;;;;;5114298;28;20681;-64
2022/01/09 02:01:02;;;;;;;1.50;1.40;;;;;;;;;;5115134;28;20206;-65
2022/01/09 02:03:29;;;;;;;1.23;1.10;;;;;;;;;;5114623;28;20253;-65
2022/01/09 02:05:57;;;;;;;1.75;1.60;;;;;;;;;;5114615;28;20717;-64
2022/01/09 02:08:24;;;;;;;1.20;1.20;;;;;;;;;;5114206;28;20662;-65
2022/01/09 02:10:51;;;;;;;1.60;1.50;;;;;;;;;;5115097;28;20276;-65
2022/01/09 02:13:20;;;;;;;1.50;1.40;;;;;;;;;;5114492;28;20250;-65
2022/01/09 02:15:48;;;;;;;1.55;1.45;;;;;;;;;;5114035;28;20197;-65
2022/01/09 02:18:16;;;;;;;1.63;1.52;;;;;;;;;;5114270;28;20217;-64
2022/01/09 02:20:45;;;;;;;1.50;1.40;;;;;;;;;;5114321;28;20217;-66
2022/01/09 02:23:14;;;;;;;1.52;1.42;;;;;;;;;;5114161;28;20282;-65
2022/01/09 02:25:42;;;;;;;1.50;1.40;;;;;;;;;;5114291;28;20588;-65
2022/01/09 02:28:10;;;;;;;1.50;1.40;;;;;;;;;;5114633;28;20255;-65
2022/01/09 02:30:37;;;;;;;1.50;1.40;;;;;;;;;;5113848;28;20281;-65
2022/01/09 02:33:06;;;;;;;1.60;1.50;;;;;;;;;;5114316;28;20287;-65
2022/01/09 02:35:33;;;;;;;2.88;1.50;;;;;;;;;;5113689;28;20232;-65
2022/01/09 02:38:02;;;;;;;1.92;1.83;;;;;;;;;;5113314;28;20215;-64
2022/01/09 02:40:30;;;;;;;1.80;1.70;;;;;;;;;;5114552;28;20590;-65
2022/01/09 02:42:57;;;;;;;1.73;1.63;;;;;;;;;;5114258;28;20608;-65
2022/01/09 02:45:26;;;;;;;1.70;1.60;;;;;;;;;;5114031;28;20589;-65
2022/01/09 02:47:55;;;;;;;1.70;1.60;;;;;;;;;;5114023;28;20267;-65
2022/01/09 02:50:33;;;;;;;2.55;1.92;;;;;;;;;;5114306;28;20221;-65
2022/01/09 02:53:01;;;;;;;1.80;1.70;;;;;;;;;;5114138;28;20573;-65
2022/01/09 02:55:31;;;;;;;2.00;1.90;;;;;;;;;;5113551;28;20226;-65
2022/01/09 02:57:59;;;;;;;2.05;1.70;;;;;;;;;;5113890;28;20219;-65
2022/01/09 03:00:28;;;;;;;2.00;1.80;;;;;;;;;;5113587;28;20248;-65
2022/01/09 03:02:55;;;;;;;2.00;1.90;;;;;;;;;;5113591;28;20273;-65
2022/01/09 03:05:23;;;;;;;2.25;2.05;;;;;;;;;;5113565;28;20271;-65
2022/01/09 03:07:51;;;;;;;2.50;2.30;;;;;;;;;;5113471;28;20712;-66
2022/01/09 03:10:19;;;;;;;2.40;2.20;;;;;;;;;;5114258;28;20234;-65
2022/01/09 03:12:47;;;;;;;2.30;2.20;;;;;;;;;;5113787;28;20250;-65
2022/01/09 03:15:15;;;;;;;2.38;2.28;;;;;;;;;;5113473;28;20239;-65
2022/01/09 03:17:42;;;;;;;2.17;2.00;;;;;;;;;;5113293;28;20307;-65
2022/01/09 03:20:11;;;;;;;2.90;1.92;;;;;;;;;;5114067;28;20582;-65
2022/01/09 03:22:38;;;;;;;2.75;2.55;;;;;;;;;;5113839;28;20194;-64
2022/01/09 03:25:06;;;;;;;2.40;2.20;;;;;;;;;;5113543;28;20284;-65
2022/01/09 03:27:34;;;;;;;5.50;2.45;;;;;;;;;;5113572;28;20286;-65
2022/01/09 03:30:02;;;;;;;3.30;3.00;;;;;;;;;;5113288;28;20234;-66
2022/01/09 03:32:29;;;;;;;2.50;2.40;;;;;;;;;;5113271;28;20653;-66
2022/01/09 03:34:57;;;;;;;3.75;3.45;;;;;;;;;;5113553;28;20197;-66
2022/01/09 03:37:24;;;;;;;3.15;2.95;;;;;;;;;;5113493;28;20219;-65
2022/01/09 03:39:51;;;;;;;4.18;3.53;;;;;;;;;;5113232;28;20283;-66
2022/01/09 03:42:18;;;;;;;3.40;3.20;;;;;;;;;;5113364;28;20664;-66
2022/01/09 03:44:46;;;;;;;3.50;3.20;;;;;;;;;;5113390;28;20227;-66
2022/01/09 03:47:14;;;;;;;3.85;3.58;;;;;;;;;;5113779;28;20276;-66
2022/01/09 03:49:41;;;;;;;3.00;2.80;;;;;;;;;;5115922;28;20226;-66
2022/01/09 03:52:09;;;;;;;4.28;3.45;;;;;;;;;;5117244;28;20300;-66
2022/01/09 03:54:38;;;;;;;3.58;3.28;;;;;;;;;;5116814;28;20282;-66
2022/01/09 03:57:06;;;;;;;3.58;3.28;;;;;;;;;;5116658;28;20198;-66
2022/01/09 03:59:33;;;;;;;4.22;3.80;;;;;;;;;;5117218;28;20280;-66
2022/01/09 04:02:00;;;;;;;4.65;4.35;;;;;;;;;;5117373;28;20285;-66
2022/01/09 04:04:29;;;;;;;4.85;4.45;;;;;;;;;;5116455;28;20279;-66
2022/01/09 04:06:56;;;;;;;5.38;4.28;;;;;;;;;;5117698;28;20527;-65
2022/01/09 04:09:37;;;;;;;5.72;5.13;;;;;;;;;;5116828;28;20224;-65
2022/01/09 04:12:06;;;;;;;5.97;5.45;;;;;;;;;;5117151;28;20179;-66
2022/01/09 04:14:34;;;;;;;7.13;4.90;;;;;;;;;;5117363;28;20532;-65
2022/01/09 04:17:03;;;;;;;6.30;5.80;;;;;;;;;;5116278;28;20191;-65
2022/01/09 04:19:31;;;;;;;6.82;6.10;;;;;;;;;;5116623;28;20219;-65
2022/01/09 04:21:58;;;;;;;6.68;5.93;;;;;;;;;;5117114;28;20297;-64
2022/01/09 04:24:26;;;;;;;7.50;6.75;;;;;;;;;;5116184;28;20190;-65
2022/01/09 04:26:53;;;;;;;5.97;5.43;;;;;;;;;;5116492;28;20274;-64
2022/01/09 04:29:20;;;;;;;7.78;7.07;;;;;;;;;;5117254;28;20230;-64
2022/01/09 04:31:47;;;;;;;7.25;6.60;;;;;;;;;;5116089;28;20276;-64
2022/01/09 04:34:15;;;;;;;6.57;6.00;;;;;;;;;;5116226;28;20276;-64
2022/01/09 04:36:43;;;;;;;7.80;6.60;;;;;;;;;;5115777;28;20192;-64
2022/01/09 04:39:10;;;;;;;6.65;5.85;;;;;;;;;;5116434;28;20272;-64
2022/01/09 04:41:38;;;;;;;6.72;6.03;;;;;;;;;;5115922;28;20234;-64
2022/01/09 04:44:05;;;;;;;7.78;6.18;;;;;;;;;;5116420;28;20241;-64
2022/01/09 04:46:40;;;;;;;4.22;3.90;;;;;;;;;;5116008;28;20256;-63
2022/01/09 04:49:07;;;;;;;6.60;5.88;;;;;;;;;;5116195;28;20192;-63
2022/01/09 04:51:35;;;;;;;7.03;6.07;;;;;;;;;;5115965;28;20223;-64
2022/01/09 04:54:04;;;;;;;8.82;5.95;;;;;;;;;;5116370;28;20257;-64
2022/01/09 04:56:31;;;;;;;5.20;4.13;;;;;;;;;;5115756;28;20642;-64
2022/01/09 04:58:58;;;;;;;10.80;5.63;;;;;;;;;;5115894;28;20255;-64
2022/01/09 05:01:26;;;;;;;4.88;4.43;;;;;;;;;;5114935;28;20601;-64
2022/01/09 05:03:53;;;;;;;5.50;4.68;;;;;;;;;;5115459;28;20313;-64
2022/01/09 05:06:21;;;;;;;4.00;3.70;;;;;;;;;;5115776;28;20278;-64
2022/01/09 05:08:48;;;;;;;4.10;3.70;;;;;;;;;;5115661;28;20198;-65
2022/01/09 05:11:17;;;;;;;6.25;4.38;;;;;;;;;;5115375;28;20731;-64
2022/01/09 05:13:44;;;;;;;7.45;4.15;;;;;;;;;;5115295;28;20287;-64
2022/01/09 05:16:11;;;;;;;4.65;4.15;;;;;;;;;;5115406;28;20636;-64
2022/01/09 05:18:51;;;;;;;6.47;5.85;;;;;;;;;;5115716;28;20306;-64
2022/01/09 05:21:18;;;;;;;4.13;3.40;;;;;;;;;;5115506;28;20179;-64
2022/01/09 05:23:45;;;;;;;9.50;3.33;;;;;;;;;;5115139;28;20290;-65
2022/01/09 05:26:12;;;;;;;8.82;4.10;;;;;;;;;;5115705;28;20195;-65
2022/01/09 05:28:41;;;;;;;9.07;4.53;;;;;;;;;;5115546;28;20617;-64
2022/01/09 05:31:08;;;;;;;11.77;3.60;;;;;;;;;;5112227;28;20663;-64
2022/01/09 05:33:35;;;;;;;9.63;4.00;;;;;;;;;;5114106;28;20293;-64
2022/01/09 05:36:02;;;;;;;10.90;4.43;;;;;;;;;;5114339;28;20274;-64
2022/01/09 05:38:30;;;;;;;8.45;3.47;;;;;;;;;;5113531;28;20300;-65
2022/01/09 05:40:57;;;;;;;18.20;5.40;;;;;;;;;;5114210;28;20283;-64
2022/01/09 05:43:24;;;;;;;24.98;4.95;;;;;;;;;;5113925;28;20233;-65
2022/01/09 05:45:53;;;;;;;18.67;5.32;;;;;;;;;;5113940;28;20218;-65
2022/01/09 05:48:20;;;;;;;10.30;4.40;;;;;;;;;;5114070;28;20234;-65
2022/01/09 05:50:47;;;;;;;12.88;4.13;;;;;;;;;;5113973;28;20625;-64
2022/01/09 05:53:15;;;;;;;24.50;5.32;;;;;;;;;;5114039;28;20603;-65
2022/01/09 05:55:42;;;;;;;14.02;4.70;;;;;;;;;;5114076;28;20327;-64
2022/01/09 05:58:09;;;;;;;17.63;3.25;;;;;;;;;;5113862;28;20301;-64
2022/01/09 06:00:36;;;;;;;13.15;4.40;;;;;;;;;;5113431;28;20223;-64
2022/01/09 06:03:05;;;;;;;21.65;4.82;;;;;;;;;;5113753;28;20246;-64
2022/01/09 06:05:32;;;;;;;15.90;4.10;;;;;;;;;;5113731;28;20214;-64
2022/01/09 06:07:59;;;;;;;21.08;4.53;;;;;;;;;;5114476;28;20270;-64
2022/01/09 06:10:27;;;;;;;18.42;4.63;;;;;;;;;;5113989;28;20282;-65
2022/01/09 06:12:54;;;;;;;31.73;6.38;;;;;;;;;;5114372;28;20187;-65
2022/01/09 06:15:21;;;;;;;25.30;6.18;;;;;;;;;;5114065;28;20284;-64
2022/01/09 06:17:48;;;;;;;21.05;4.68;;;;;;;;;;5114505;28;20282;-63
2022/01/09 06:20:17;;;;;;;11.13;3.67;;;;;;;;;;5114214;28;20704;-64
2022/01/09 06:22:45;;;;;;;14.70;3.53;;;;;;;;;;5114172;28;20186;-64
2022/01/09 06:25:12;;;;;;;22.92;4.53;;;;;;;;;;5113606;28;20675;-63
2022/01/09 06:27:40;;;;;;;14.07;3.10;;;;;;;;;;5113895;28;20284;-65
2022/01/09 06:30:08;;;;;;;23.75;4.45;;;;;;;;;;5114501;28;20223;-64
2022/01/09 06:32:35;;;;;;;15.73;4.95;;;;;;;;;;5114182;28;20281;-64
2022/01/09 06:35:02;;;;;;;24.88;4.50;;;;;;;;;;5113814;28;20282;-65
2022/01/09 06:37:32;;;;;;;17.17;2.88;;;;;;;;;;5114217;28;20277;-66
2022/01/09 06:39:59;;;;;;;25.85;5.15;;;;;;;;;;5113894;28;20672;-65
2022/01/09 06:42:27;;;;;;;21.02;6.25;;;;;;;;;;5112470;28;20275;-65
2022/01/09 06:44:54;;;;;;;10.07;3.72;;;;;;;;;;5113860;28;20286;-64
2022/01/09 06:47:21;;;;;;;16.63;3.85;;;;;;;;;;5114244;28;20235;-65
2022/01/09 06:49:48;;;;;;;15.20;3.10;;;;;;;;;;5113840;28;20282;-65
2022/01/09 06:52:16;;;;;;;19.08;3.40;;;;;;;;;;5114102;28;20246;-66
2022/01/09 06:54:44;;;;;;;6.60;2.75;;;;;;;;;;5107955;28;20185;-64
2022/01/09 06:57:12;;;;;;;10.05;3.10;;;;;;;;;;5107429;28;20675;-64
2022/01/09 06:59:39;;;;;;;8.57;3.30;;;;;;;;;;5113161;28;20305;-64
2022/01/09 07:02:06;;;;;;;10.73;2.45;;;;;;;;;;5113814;28;20252;-64
2022/01/09 07:04:33;;;;;;;3.90;2.42;;;;;;;;;;5114345;28;20254;-64
2022/01/09 07:07:01;;;;;;;7.20;2.78;;;;;;;;;;5112572;28;20711;-64
2022/01/09 07:09:28;;;;;;;14.85;3.75;;;;;;;;;;5113592;28;20288;-64
2022/01/09 07:11:56;;;;;;;18.45;3.08;;;;;;;;;;5113577;28;20278;-64
2022/01/09 07:14:23;;;;;;;12.10;2.53;;;;;;;;;;5113562;28;20284;-66
2022/01/09 07:16:51;;;;;;;6.93;2.67;;;;;;;;;;5113860;28;20189;-65
2022/01/09 07:19:18;;;;;;;8.55;2.78;;;;;;;;;;5113814;28;20630;-64
2022/01/09 07:21:45;;;;;;;15.48;3.05;;;;;;;;;;5114006;28;20285;-64
2022/01/09 07:24:12;;;;;;;6.38;2.80;;;;;;;;;;5115152;28;20278;-64
2022/01/09 07:26:40;;;;;;;11.75;3.50;;;;;;;;;;5117314;28;20285;-64
2022/01/09 07:29:08;;;;;;;7.57;3.22;;;;;;;;;;5117449;28;20227;-64
2022/01/09 07:31:35;;;;;;;11.80;2.45;;;;;;;;;;5117424;28;20637;-64
2022/01/09 07:34:03;;;;;;;11.07;3.00;;;;;;;;;;5117958;28;20227;-64
2022/01/09 07:36:30;;;;;;;13.80;3.50;;;;;;;;;;5117398;28;20247;-65
2022/01/09 07:38:57;;;;;;;10.88;3.10;;;;;;;;;;5117451;28;20306;-64
2022/01/09 07:41:24;;;;;;;9.60;3.50;;;;;;;;;;5118365;28;20282;-64
2022/01/09 07:43:52;;;;;;;19.58;4.07;;;;;;;;;;5118085;28;20234;-64
2022/01/09 07:46:20;;;;;;;11.18;2.35;;;;;;;;;;5117535;28;20275;-64
2022/01/09 07:48:48;;;;;;;11.18;2.72;;;;;;;;;;5117046;28;20303;-64
2022/01/09 07:51:15;;;;;;;11.27;2.65;;;;;;;;;;5116944;28;20185;-64
2022/01/09 07:53:42;;;;;;;9.02;2.80;;;;;;;;;;5117312;28;20195;-64
2022/01/09 07:56:09;;;;;;;6.25;2.80;;;;;;;;;;5116938;28;20186;-65
2022/01/09 07:58:36;;;;;;;6.00;2.58;;;;;;;;;;5117178;28;20208;-64
2022/01/09 08:01:04;;;;;;;9.98;2.65;;;;;;;;;;5117204;28;20288;-64
2022/01/09 08:03:33;;;;;;;9.80;3.55;;;;;;;;;;5117211;28;20312;-65
2022/01/09 08:06:01;;;;;;;5.97;2.33;;;;;;;;;;5117033;28;20196;-65
2022/01/09 08:08:28;;;;;;;10.98;2.90;;;;;;;;;;5116711;28;20251;-65
2022/01/09 08:10:55;;;;;;;14.25;3.92;;;;;;;;;;5117247;28;20287;-65
2022/01/09 08:13:23;;;;;;;4.05;3.28;;;;;;;;;;5117426;28;20384;-65
2022/01/09 08:15:50;;;;;;;11.00;3.50;;;;;;;;;;5116510;28;20743;-65
2022/01/09 08:18:17;;;;;;;14.57;4.40;;;;;;;;;;5116849;28;20597;-64
2022/01/09 08:20:46;;;;;;;10.32;4.15;;;;;;;;;;5116694;28;20282;-65
2022/01/09 08:23:17;;;;;;;10.05;3.58;;;;;;;;;;5116572;28;20226;-65
2022/01/09 08:25:44;;;;;;;12.82;4.10;;;;;;;;;;5116444;28;20625;-66
2022/01/09 08:28:11;;;;;;;15.57;4.38;;;;;;;;;;5116642;28;20231;-65
2022/01/09 08:30:38;;;;;;;9.40;5.03;;;;;;;;;;5116660;28;20196;-65
2022/01/09 08:33:06;;;;;;;9.18;3.45;;;;;;;;;;5116607;28;20242;-65
2022/01/09 08:35:33;;;;;;;7.88;4.13;;;;;;;;;;5116122;28;20240;-65
2022/01/09 08:38:02;;;;;;;15.25;5.00;;;;;;;;;;5116604;28;20766;-65
2022/01/09 08:40:29;;;;;;;14.25;5.53;;;;;;;;;;5116768;28;20562;-65
2022/01/09 08:42:56;;;;;;;7.30;4.13;;;;;;;;;;5116653;28;20286;-65
2022/01/09 08:45:24;;;;;;;14.43;4.13;;;;;;;;;;5116652;28;20242;-65
2022/01/09 08:47:51;;;;;;;11.90;3.20;;;;;;;;;;5116538;28;20198;-65
2022/01/09 08:50:20;;;;;;;8.65;3.25;;;;;;;;;;5116300;28;20206;-65
2022/01/09 08:52:47;;;;;;;11.10;3.35;;;;;;;;;;5116251;28;20241;-65
2022/01/09 08:55:16;;;;;;;11.65;3.67;;;;;;;;;;5116618;28;20532;-65
2022/01/09 08:57:43;;;;;;;11.70;3.83;;;;;;;;;;5116230;28;20227;-65
2022/01/09 09:00:11;;;;;;;12.52;3.92;;;;;;;;;;5115857;28;20310;-65
2022/01/09 09:02:41;;;;;;;15.02;3.90;;;;;;;;;;5116224;28;20229;-65
2022/01/09 09:05:08;;;;;;;11.13;4.40;;;;;;;;;;5114962;28;20229;-65
2022/01/09 09:07:35;;;;;;;7.25;3.10;;;;;;;;;;5115905;28;20190;-65
2022/01/09 09:10:04;;;;;;;8.90;3.95;;;;;;;;;;5115583;28;20590;-65
2022/01/09 09:12:33;;;;;;;12.50;4.10;;;;;;;;;;5115707;28;20224;-65
2022/01/09 09:15:01;;;;;;;7.03;2.67;;;;;;;;;;5115254;28;20247;-65
2022/01/09 09:17:28;;;;;;;10.65;3.72;;;;;;;;;;5115655;28;20277;-64
2022/01/09 09:19:56;;;;;;;12.27;2.95;;;;;;;;;;5114224;28;20302;-65
2022/01/09 09:22:23;;;;;;;11.93;4.75;;;;;;;;;;5114058;28;20227;-65
2022/01/09 09:24:50;;;;;;;13.02;3.78;;;;;;;;;;5115375;28;20287;-65
2022/01/09 09:27:21;;;;;;;11.75;3.83;;;;;;;;;;5115444;28;20223;-65
2022/01/09 09:29:50;;;;;;;4.00;2.67;;;;;;;;;;5115492;28;20275;-65
2022/01/09 09:32:17;;;;;;;11.63;3.90;;;;;;;;;;5111271;28;20186;-65
2022/01/09 09:34:45;;;;;;;5.72;2.78;;;;;;;;;;5105873;28;20191;-65
2022/01/09 09:37:12;;;;;;;8.48;4.05;;;;;;;;;;5104652;28;20216;-65
2022/01/09 09:39:39;;;;;;;6.80;3.42;;;;;;;;;;5103310;28;20243;-65
2022/01/09 09:42:07;;;;;;;13.40;3.90;;;;;;;;;;5095026;28;20216;-65
2022/01/09 09:44:34;;;;;;;10.75;4.05;;;;;;;;;;5094026;28;20653;-65
2022/01/09 09:47:03;;;;;;;7.78;4.03;;;;;;;;;;5094226;28;20287;-64
2022/01/09 09:49:30;;;;;;;9.63;3.95;;;;;;;;;;5094334;28;20196;-65
2022/01/09 09:51:57;;;;;;;12.65;3.75;;;;;;;;;;5107621;28;20282;-66
2022/01/09 09:54:25;;;;;;;12.77;3.40;;;;;;;;;;5114485;28;20282;-64
2022/01/09 09:56:53;;;;;;;5.70;2.70;;;;;;;;;;5114996;28;20218;-65
2022/01/09 09:59:25;;;;;;;11.30;5.15;;;;;;;;;;5115087;28;20664;-65
2022/01/09 10:01:52;;;;;;;10.93;4.13;;;;;;;;;;5115667;28;20190;-64
2022/01/09 10:04:22;;;;;;;8.02;3.15;;;;;;;;;;5115410;28;20310;-64
2022/01/09 10:06:50;;;;;;;13.32;4.03;;;;;;;;;;5114671;28;20189;-65
2022/01/09 10:09:18;;;;;;;7.75;3.65;;;;;;;;;;5116682;28;20226;-65
2022/01/09 10:11:47;;;;;;;6.40;3.95;;;;;;;;;;5114182;28;20199;-65
2022/01/09 10:14:15;;;;;;;10.77;3.95;;;;;;;;;;5113655;28;20278;-65
2022/01/09 10:16:43;;;;;;;6.68;3.25;;;;;;;;;;5113918;28;20191;-64
2022/01/09 10:19:10;;;;;;;8.70;2.25;;;;;;;;;;5113627;28;20283;-65
2022/01/09 10:21:38;;;;;;;9.50;3.95;;;;;;;;;;5113482;28;20280;-65
2022/01/09 10:24:07;;;;;;;5.72;3.00;;;;;;;;;;5113667;28;20664;-66
2022/01/09 10:26:36;;;;;;;12.10;4.35;;;;;;;;;;5113748;28;20223;-65
2022/01/09 10:29:03;;;;;;;7.88;2.78;;;;;;;;;;5114038;28;20289;-65
2022/01/09 10:31:31;;;;;;;10.93;2.55;;;;;;;;;;5113300;28;20280;-65
2022/01/09 10:34:03;;;;;;;7.53;3.20;;;;;;;;;;5113145;28;20195;-65
2022/01/09 10:36:34;;;;;;;6.75;2.53;;;;;;;;;;5114502;28;20205;-65
2022/01/09 10:39:05;;;;;;;8.27;3.25;;;;;;;;;;5113468;28;20205;-66
2022/01/09 10:41:45;;;;;;;8.70;3.75;;;;;;;;;;5114656;28;20589;-65
2022/01/09 10:44:16;;;;;;;16.50;3.95;;;;;;;;;;5113967;28;20696;-64
2022/01/09 10:46:53;;;;;;;7.20;2.90;;;;;;;;;;5114548;28;20278;-65
2022/01/09 10:49:20;;;;;;;6.78;3.97;;;;;;;;;;5114045;28;20206;-65
2022/01/09 10:51:48;;;;;;;12.38;4.88;;;;;;;;;;5113352;28;20192;-65
2022/01/09 10:54:30;;;;;;;6.32;3.20;;;;;;;;;;5113801;28;20218;-65
2022/01/09 10:57:10;;;;;;;6.18;2.47;;;;;;;;;;5113759;28;20184;-65
2022/01/09 10:59:37;;;;;;;8.07;3.72;;;;;;;;;;5116082;28;20745;-65
2022/01/09 11:02:04;;;;;;;6.63;3.65;;;;;;;;;;5118166;28;20187;-66
2022/01/09 11:04:31;;;;;;;13.93;3.55;;;;;;;;;;5118551;28;20263;-66
2022/01/09 11:07:01;;;;;;;5.72;2.97;;;;;;;;;;5117819;28;20195;-65
2022/01/09 11:09:31;;;;;;;8.20;3.25;;;;;;;;;;5117919;28;20187;-65
2022/01/09 11:11:59;;;;;;;11.27;3.90;;;;;;;;;;5117466;28;20678;-68
2022/01/09 11:14:27;;;;;;;2.40;2.20;;;;;;;;;;5117758;28;20590;-65
2022/01/09 11:16:55;;;;;;;8.32;3.45;;;;;;;;;;5117678;28;20194;-65
2022/01/09 11:19:23;;;;;;;6.57;3.25;;;;;;;;;;5117495;28;20701;-65
2022/01/09 11:21:52;;;;;;;15.88;6.32;;;;;;;;;;5117760;28;20278;-65
2022/01/09 11:24:26;;;;;;;7.03;3.58;;;;;;;;;;5117457;28;20200;-65
2022/01/09 11:26:57;;;;;;;5.65;3.30;;;;;;;;;;5118456;28;20273;-65
2022/01/09 11:29:30;;;;;;;6.18;3.70;;;;;;;;;;5117884;28;20183;-66
2022/01/09 11:32:03;;;;;;;8.63;3.03;;;;;;;;;;5117731;28;20187;-65
2022/01/09 11:34:35;;;;;;;11.52;3.50;;;;;;;;;;5118063;28;20232;-65
2022/01/09 11:37:10;;;;;;;11.23;3.33;;;;;;;;;;5117517;28;20227;-65
2022/01/09 11:39:37;;;;;;;9.07;3.28;;;;;;;;;;5117476;28;20230;-65
2022/01/09 11:42:11;;;;;;;8.25;4.65;;;;;;;;;;5117448;28;20281;-65
2022/01/09 11:44:45;;;;;;;6.93;3.65;;;;;;;;;;5118082;28;20181;-65
2022/01/09 11:47:13;;;;;;;10.82;3.47;;;;;;;;;;5117059;28;20175;-66
2022/01/09 11:49:41;;;;;;;10.27;3.72;;;;;;;;;;5116986;28;20281;-65
2022/01/09 11:52:09;;;;;;;7.68;3.35;;;;;;;;;;5117046;28;20278;-65
2022/01/09 11:54:50;;;;;;;9.07;3.70;;;;;;;;;;5116815;28;20282;-66
2022/01/09 11:57:35;;;;;;;6.35;3.30;;;;;;;;;;5116859;28;20235;-65
2022/01/09 12:00:02;;;;;;;8.27;4.10;;;;;;;;;;5117890;28;20249;-65
2022/01/09 12:02:31;;;;;;;3.47;2.95;;;;;;;;;;5116959;28;20223;-65
2022/01/09 12:05:01;;;;;;;9.23;3.42;;;;;;;;;;5117483;28;20220;-65
2022/01/09 12:07:48;;;;;;;4.80;2.92;;;;;;;;;;5116879;28;20667;-65
2022/01/09 12:10:28;;;;;;;7.88;4.32;;;;;;;;;;5116437;28;20195;-66
2022/01/09 12:12:57;;;;;;;16.27;3.90;;;;;;;;;;5116308;28;20275;-65
2022/01/09 12:15:34;;;;;;;13.70;6.90;;;;;;;;;;5116905;28;20529;-65
2022/01/09 12:18:03;;;;;;;9.13;5.05;;;;;;;;;;5116546;28;20277;-66
2022/01/09 12:20:37;;;;;;;13.07;4.40;;;;;;;;;;5116412;28;20250;-65
2022/01/09 12:23:05;;;;;;;9.63;4.32;;;;;;;;;;5113449;28;20191;-65
2022/01/09 12:25:59;;;;;;;10.88;5.05;;;;;;;;;;5116623;28;20695;-65
2022/01/09 12:28:43;;;;;;;7.15;3.20;;;;;;;;;;5115951;28;20211;-66
2022/01/09 12:31:22;;;;;;;10.27;4.80;;;;;;;;;;5116690;28;20620;-65
2022/01/09 12:33:53;;;;;;;7.97;4.35;;;;;;;;;;5116421;28;20279;-66
2022/01/09 12:36:23;;;;;;;9.43;5.05;;;;;;;;;;5116253;28;20190;-65
2022/01/09 12:38:51;;;;;;;10.50;6.00;;;;;;;;;;5116181;28;20192;-65
2022/01/09 12:41:20;;;;;;;6.88;3.90;;;;;;;;;;5116472;28;20217;-66
2022/01/09 12:43:56;;;;;;;12.73;4.47;;;;;;;;;;5116236;28;20244;-65
2022/01/09 12:46:23;;;;;;;13.82;4.70;;;;;;;;;;5116048;28;20179;-65
2022/01/09 12:48:54;;;;;;;8.68;4.45;;;;;;;;;;5115833;28;20545;-66
2022/01/09 12:51:22;;;;;;;11.07;5.07;;;;;;;;;;5116201;28;20257;-66
2022/01/09 12:53:50;;;;;;;17.08;5.07;;;;;;;;;;5116087;28;20219;-66
2022/01/09 12:56:18;;;;;;;7.75;3.65;;;;;;;;;;5115967;28;20275;-66
2022/01/09 12:58:47;;;;;;;9.98;5.43;;;;;;;;;;5115968;28;20196;-66
2022/01/09 13:01:20;;;;;;;6.05;3.80;;;;;;;;;;5115791;28;20226;-66
2022/01/09 13:03:48;;;;;;;8.82;4.10;;;;;;;;;;5115850;28;20236;-65
2022/01/09 13:06:17;;;;;;;17.50;4.28;;;;;;;;;;5115898;28;20287;-65
2022/01/09 13:08:46;;;;;;;8.82;4.13;;;;;;;;;;5115339;28;20194;-67
2022/01/09 13:11:15;;;;;;;5.20;2.88;;;;;;;;;;5115621;28;20206;-65
2022/01/09 13:13:43;;;;;;;13.13;4.38;;;;;;;;;;5115905;28;20290;-66
2022/01/09 13:16:17;;;;;;;9.40;4.45;;;;;;;;;;5115414;28;20239;-71
2022/01/09 13:18:46;;;;;;;12.93;4.35;;;;;;;;;;5115973;28;20183;-64
2022/01/09 13:21:17;;;;;;;13.40;6.00;;;;;;;;;;5114492;28;20307;-64
2022/01/09 13:23:54;;;;;;;11.25;3.88;;;;;;;;;;5115069;28;20233;-65
2022/01/09 13:26:22;;;;;;;5.18;3.20;;;;;;;;;;5115276;28;20227;-66
2022/01/09 13:28:50;;;;;;;8.30;3.15;;;;;;;;;;5115236;28;20637;-66
2022/01/09 13:31:19;;;;;;;6.90;2.97;;;;;;;;;;5116150;28;20230;-66
2022/01/09 13:33:58;;;;;;;6.07;1.90;;;;;;;;;;5116835;28;20231;-66
2022/01/09 13:36:29;;;;;;;9.90;3.45;;;;;;;;;;5116720;28;20179;-66
2022/01/09 13:38:57;;;;;;;10.23;2.28;;;;;;;;;;5116935;28;20224;-66
2022/01/09 13:41:25;;;;;;;3.92;3.17;;;;;;;;;;5116219;28;20605;-67
2022/01/09 13:43:52;;;;;;;9.27;2.83;;;;;;;;;;5115724;28;20227;-66
2022/01/09 13:46:19;;;;;;;5.88;3.53;;;;;;;;;;5115181;28;20223;-65
2022/01/09 13:48:48;;;;;;;8.63;4.15;;;;;;;;;;5114533;28;20224;-65
2022/01/09 13:51:17;;;;;;;8.45;3.70;;;;;;;;;;5114716;28;20203;-66
2022/01/09 13:53:59;;;;;;;8.73;4.25;;;;;;;;;;5114815;28;20283;-65
2022/01/09 13:56:27;;;;;;;4.63;2.70;;;;;;;;;;5114607;28;20296;-66
2022/01/09 13:58:56;;;;;;;7.07;4.20;;;;;;;;;;5115333;28;20196;-65
2022/01/09 14:01:38;;;;;;;10.38;5.18;;;;;;;;;;5115899;28;20252;-66
2022/01/09 14:04:11;;;;;;;14.85;4.78;;;;;;;;;;5115297;28;20255;-66
2022/01/09 14:06:39;;;;;;;12.10;4.20;;;;;;;;;;5115063;28;20212;-66
2022/01/09 14:09:08;;;;;;;7.35;5.30;;;;;;;;;;5114596;28;20254;-65
2022/01/09 14:11:35;;;;;;;11.10;4.10;;;;;;;;;;5114767;28;20282;-65
2022/01/09 14:14:02;;;;;;;9.68;6.10;;;;;;;;;;5114388;28;20289;-65
2022/01/09 14:16:34;;;;;;;12.38;5.10;;;;;;;;;;5114258;28;20233;-66
2022/01/09 14:19:05;;;;;;;8.85;4.68;;;;;;;;;;5114381;28;20180;-66
2022/01/09 14:21:33;;;;;;;8.43;3.92;;;;;;;;;;5115039;28;20580;-65
2022/01/09 14:24:09;;;;;;;7.63;4.00;;;;;;;;;;5114382;28;20197;-65
2022/01/09 14:26:37;;;;;;;4.43;3.35;;;;;;;;;;5115699;28;20325;-65
2022/01/09 14:29:05;;;;;;;5.38;3.45;;;;;;;;;;5114637;28;20191;-65
2022/01/09 14:31:36;;;;;;;9.30;3.28;;;;;;;;;;5113988;28;20289;-65
2022/01/09 14:34:06;;;;;;;12.55;3.35;;;;;;;;;;5114942;28;20195;-65
2022/01/09 14:36:34;;;;;;;4.03;3.00;;;;;;;;;;5114290;28;20226;-66
2022/01/09 14:39:02;;;;;;;4.78;3.35;;;;;;;;;;5114291;28;20193;-66
2022/01/09 14:41:32;;;;;;;8.60;4.15;;;;;;;;;;5114243;28;20246;-66
2022/01/09 14:44:00;;;;;;;4.30;2.85;;;;;;;;;;5114706;28;20562;-66
2022/01/09 14:46:28;;;;;;;8.55;3.47;;;;;;;;;;5114201;28;20243;-66